KAMA/AMA METAR and TAF weather

Enter ICAO airport designator
Station Type Date Time Source
KAMA METAR 2022/12/05 14:53 UTC NOAA

KAMA 051453Z 26012KT 10SM CLR 13/08 A2981 RMK AO2 SLP072 T01330078 53011


Station Type Date Time Source
KAMA Decoded METAR 2022/12/05 14:53 UTC NOAA

AMARILLO INTERNATIONAL AIRPORT, TX, United States (KAMA) 35-13N 101-43W 1093M
Dec 05, 2022 - 09:53 AM EST / 2022.12.05 1453 UTC
Wind: from the W (260 degrees) at 14 MPH (12 KT):0
Visibility: 10 mile(s):0
Sky conditions: clear
Temperature: 55.9 F (13.3 C)
Dew Point: 46.0 F (7.8 C)
Relative Humidity: 69%
Pressure (altimeter): 29.81 in. Hg (1009 hPa)
Pressure tendency: 0.03 inches (1.1 hPa) higher than three hours ago
ob: KAMA 051453Z 26012KT 10SM CLR 13/08 A2981 RMK AO2 SLP072 T01330078 53011
cycle: 15

Station Type Date Time Source
KAMA TAF 2022/12/05 12:22 UTC NOAA

TAF KAMA 051120Z 0512/0612 25014KT P6SM OVC250
FM051500 27016G23KT P6SM SKC
FM060000 25010KT P6SM SKC

Example: see airport list